Time;durP1;ratioP1;P1;durP2;ratioP2;P2;SDS_P1;SDS_P2;PMS_P1;PMS_P2;Temp;Humidity;BMP_temperature;BMP_pressure;BME280_temperature;BME280_humidity;BME280_pressure;Samples;Min_cycle;Max_cycle;Signal;HPM_P1;HPM_P2
2023/05/11 00:01:07;;;;;;;6.23;5.73;;;14.00;99.90;;;;;;4974369;28;20696;-82
2023/05/11 00:03:34;;;;;;;7.80;6.87;;;14.00;99.90;;;;;;4973045;28;20181;-82
2023/05/11 00:06:00;;;;;;;9.63;7.30;;;13.90;99.90;;;;;;4974268;28;20485;-82
2023/05/11 00:08:26;;;;;;;7.40;6.67;;;13.90;99.90;;;;;;4977663;28;20425;-82
2023/05/11 00:10:52;;;;;;;9.37;7.30;;;13.90;99.90;;;;;;4978127;28;20935;-82
2023/05/11 00:13:19;;;;;;;8.90;6.67;;;13.90;99.90;;;;;;4976892;28;20196;-82
2023/05/11 00:15:45;;;;;;;6.60;5.87;;;13.90;99.90;;;;;;4977914;28;20457;-82
2023/05/11 00:18:10;;;;;;;9.93;6.97;;;13.90;99.90;;;;;;4978081;28;20450;-82
2023/05/11 00:20:36;;;;;;;7.77;7.00;;;13.90;99.90;;;;;;4977959;28;20200;-81
2023/05/11 00:23:02;;;;;;;8.27;6.30;;;13.90;99.90;;;;;;4977895;28;20235;-82
2023/05/11 00:25:27;;;;;;;8.20;6.60;;;13.90;99.90;;;;;;4977723;28;20590;-82
2023/05/11 00:27:53;;;;;;;7.00;6.30;;;13.90;99.90;;;;;;4978032;28;20182;-82
2023/05/11 00:30:19;;;;;;;8.33;6.30;;;13.90;99.90;;;;;;4976448;28;20559;-81
2023/05/11 00:32:45;;;;;;;7.67;6.60;;;13.80;99.90;;;;;;4976422;28;20668;-81
2023/05/11 00:35:11;;;;;;;8.10;6.70;;;13.80;99.90;;;;;;4977593;28;20206;-82
2023/05/11 00:37:40;;;;;;;10.87;6.10;;;13.80;99.90;;;;;;4976296;28;20653;-82
2023/05/11 00:40:06;;;;;;;7.50;6.80;;;13.80;99.90;;;;;;4976197;28;20453;-81
2023/05/11 00:42:33;;;;;;;8.53;6.40;;;13.80;99.90;;;;;;4976442;28;20453;-82
2023/05/11 00:44:58;;;;;;;6.63;5.77;;;13.80;99.90;;;;;;4976077;28;20891;-81
2023/05/11 00:47:25;;;;;;;11.70;6.57;;;13.80;99.90;;;;;;4977338;28;20415;-82
2023/05/11 00:49:52;;;;;;;8.57;7.43;;;13.80;99.90;;;;;;4977696;28;20172;-82
2023/05/11 00:52:19;;;;;;;8.43;7.53;;;13.70;99.90;;;;;;4977679;28;20445;-81
2023/05/11 00:54:46;;;;;;;12.80;7.80;;;13.70;99.90;;;;;;4977146;28;20425;-82
2023/05/11 00:57:12;;;;;;;10.40;7.83;;;13.60;99.90;;;;;;4975985;28;20465;-81
2023/05/11 00:59:38;;;;;;;8.93;7.50;;;13.60;99.90;;;;;;4977571;28;20904;-82
2023/05/11 01:02:04;;;;;;;8.70;7.40;;;13.60;99.90;;;;;;4977184;28;20501;-82
2023/05/11 01:04:31;;;;;;;7.33;6.53;;;13.60;99.90;;;;;;4975522;28;20572;-82
2023/05/11 01:07:08;;;;;;;7.80;6.83;;;13.60;99.90;;;;;;4977008;28;20342;-82
2023/05/11 01:10:00;;;;;;;10.80;6.33;;;13.60;99.90;;;;;;4977529;28;20422;-82
2023/05/11 01:12:26;;;;;;;7.37;6.40;;;13.60;99.90;;;;;;4975673;28;20419;-81
2023/05/11 01:15:09;;;;;;;8.47;6.70;;;13.60;99.90;;;;;;4975742;28;20450;-81
2023/05/11 01:17:57;;;;;;;7.13;6.43;;;13.40;99.90;;;;;;4976946;28;20646;-82
2023/05/11 01:20:26;;;;;;;7.10;6.40;;;13.50;99.90;;;;;;4975291;28;20505;-82
2023/05/11 01:23:18;;;;;;;7.20;6.50;;;13.50;99.90;;;;;;4976753;28;20402;-82
2023/05/11 01:25:52;;;;;;;9.43;8.23;;;13.40;99.90;;;;;;4976629;28;20878;-82
2023/05/11 01:28:24;;;;;;;10.10;8.13;;;13.40;99.90;;;;;;4976976;28;20782;-82
2023/05/11 01:30:56;;;;;;;11.17;8.00;;;13.40;99.90;;;;;;4975331;28;20430;-82
2023/05/11 01:33:29;;;;;;;10.30;8.30;;;13.30;99.90;;;;;;4975445;28;20434;-82
2023/05/11 01:36:04;;;;;;;8.83;7.57;;;13.20;99.90;;;;;;4976501;28;20425;-82
2023/05/11 01:38:36;;;;;;;8.03;6.87;;;13.30;99.90;;;;;;4975553;28;20938;-82
2023/05/11 01:41:17;;;;;;;8.53;7.63;;;13.40;99.90;;;;;;4975145;28;20427;-82
2023/05/11 01:43:48;;;;;;;9.80;7.73;;;13.40;99.90;;;;;;4975339;28;20438;-82
2023/05/11 01:46:15;;;;;;;9.10;6.80;;;13.40;99.90;;;;;;4976677;28;20466;-82
2023/05/11 01:48:45;;;;;;;10.00;7.57;;;13.30;99.90;;;;;;4976305;28;20450;-81
2023/05/11 01:51:13;;;;;;;7.97;7.17;;;13.30;99.90;;;;;;4975233;28;20427;-82
2023/05/11 01:53:41;;;;;;;8.97;7.23;;;13.20;99.90;;;;;;4976494;28;20422;-82
2023/05/11 01:56:08;;;;;;;9.47;7.33;;;13.20;99.90;;;;;;4974995;28;20433;-82
2023/05/11 01:58:36;;;;;;;7.20;6.50;;;13.10;99.90;;;;;;4976331;28;20414;-82
2023/05/11 02:01:02;;;;;;;7.87;7.07;;;13.20;99.90;;;;;;4974796;28;20446;-82
2023/05/11 02:03:30;;;;;;;8.13;7.37;;;13.20;99.90;;;;;;4974884;28;20534;-82
2023/05/11 02:05:57;;;;;;;8.93;8.03;;;13.20;99.90;;;;;;4975625;28;20462;-81
2023/05/11 02:08:24;;;;;;;9.10;6.87;;;13.10;99.90;;;;;;4974700;28;20437;-82
2023/05/11 02:10:52;;;;;;;8.17;7.37;;;13.10;99.90;;;;;;4975844;28;20963;-82
2023/05/11 02:13:18;;;;;;;8.60;7.00;;;13.10;99.90;;;;;;4974679;28;20433;-82
2023/05/11 02:15:46;;;;;;;8.37;7.10;;;13.00;99.90;;;;;;4975731;28;20481;-82
2023/05/11 02:18:14;;;;;;;9.03;7.90;;;13.10;99.90;;;;;;4975698;28;20924;-82
2023/05/11 02:20:44;;;;;;;9.30;7.83;;;13.00;99.90;;;;;;4975669;28;20966;-81
2023/05/11 02:23:10;;;;;;;8.30;6.73;;;13.00;99.90;;;;;;4974573;28;20788;-81
2023/05/11 02:25:40;;;;;;;9.17;8.07;;;12.90;99.90;;;;;;4974265;28;20473;-82
2023/05/11 02:28:07;;;;;;;8.00;7.20;;;12.90;99.90;;;;;;4974366;28;20430;-81
2023/05/11 02:30:39;;;;;;;8.93;7.97;;;12.90;99.90;;;;;;4974781;28;20426;-82
2023/05/11 02:33:08;;;;;;;9.80;7.30;;;12.80;99.90;;;;;;4975466;28;20430;-82
2023/05/11 02:35:38;;;;;;;10.13;7.40;;;12.80;99.90;;;;;;4975437;28;20418;-82
2023/05/11 02:38:04;;;;;;;10.82;8.30;;;12.80;99.90;;;;;;4975491;28;20437;-82
2023/05/11 02:40:33;;;;;;;9.30;7.73;;;12.70;99.90;;;;;;4974146;28;20247;-81
2023/05/11 02:43:23;;;;;;;8.47;7.57;;;12.70;99.90;;;;;;4974337;28;20496;-82
2023/05/11 02:45:52;;;;;;;9.00;7.65;;;12.70;99.90;;;;;;4971236;28;20514;-82
2023/05/11 02:48:26;;;;;;;8.63;7.75;;;12.60;99.90;;;;;;4975408;28;20212;-81
2023/05/11 02:50:54;;;;;;;8.60;7.10;;;12.50;99.90;;;;;;4974016;28;20606;-82
2023/05/11 02:53:24;;;;;;;9.45;8.25;;;12.50;99.90;;;;;;4975264;28;20422;-82
2023/05/11 02:55:50;;;;;;;8.20;7.38;;;12.50;99.90;;;;;;4975194;28;20211;-82
2023/05/11 02:58:17;;;;;;;9.30;8.30;;;12.50;99.90;;;;;;4975271;28;20530;-82
2023/05/11 03:00:44;;;;;;;8.65;7.85;;;12.50;99.90;;;;;;4973670;28;20434;-82
2023/05/11 03:03:10;;;;;;;9.23;8.18;;;12.50;99.90;;;;;;4974937;28;20188;-82
2023/05/11 03:05:35;;;;;;;8.70;7.83;;;12.40;99.90;;;;;;4973153;28;20777;-81
2023/05/11 03:08:01;;;;;;;9.63;7.90;;;12.40;99.90;;;;;;4974160;28;20439;-81
2023/05/11 03:10:28;;;;;;;9.00;8.10;;;12.40;99.90;;;;;;4973699;28;20350;-82
2023/05/11 03:12:54;;;;;;;9.68;8.23;;;12.40;99.90;;;;;;4973717;28;20689;-81
2023/05/11 03:15:21;;;;;;;8.35;7.53;;;12.30;99.90;;;;;;4973525;28;20670;-82
2023/05/11 03:17:48;;;;;;;8.10;7.30;;;12.30;99.90;;;;;;4974786;28;20200;-82
2023/05/11 03:20:16;;;;;;;9.82;8.18;;;12.50;99.90;;;;;;4974851;28;20670;-81
2023/05/11 03:22:43;;;;;;;9.05;7.82;;;12.50;99.90;;;;;;4973495;28;20173;-81
2023/05/11 03:25:10;;;;;;;8.80;7.90;;;12.60;99.90;;;;;;4974653;28;20224;-81
2023/05/11 03:27:37;;;;;;;9.07;7.80;;;12.60;99.90;;;;;;4973554;28;20785;-82
2023/05/11 03:30:07;;;;;;;8.02;7.18;;;12.60;99.90;;;;;;4974723;28;20418;-82
2023/05/11 03:32:34;;;;;;;10.95;7.72;;;12.70;99.90;;;;;;4974714;28;20587;-82
2023/05/11 03:35:00;;;;;;;8.33;7.43;;;12.70;99.90;;;;;;4973478;28;20279;-82
2023/05/11 03:37:26;;;;;;;8.30;7.40;;;12.70;99.90;;;;;;4974785;28;20417;-82
2023/05/11 03:39:56;;;;;;;9.27;8.37;;;12.80;99.90;;;;;;4975131;28;20422;-81
2023/05/11 03:42:24;;;;;;;8.55;7.75;;;12.80;99.90;;;;;;4974838;28;20424;-82
2023/05/11 03:44:54;;;;;;;7.70;7.00;;;12.90;99.90;;;;;;4977401;28;20216;-82
2023/05/11 03:47:21;;;;;;;7.82;7.03;;;12.90;99.90;;;;;;4977257;28;20817;-82
2023/05/11 03:49:47;;;;;;;11.70;7.40;;;12.80;99.90;;;;;;4977161;28;20276;-82
2023/05/11 03:52:14;;;;;;;9.57;8.25;;;12.70;99.90;;;;;;4977175;28;20180;-82
2023/05/11 03:54:41;;;;;;;8.88;7.32;;;12.50;99.90;;;;;;4976766;28;20271;-81
2023/05/11 03:57:09;;;;;;;10.43;8.03;;;12.60;99.90;;;;;;4977053;28;20177;-82
2023/05/11 03:59:34;;;;;;;8.43;7.63;;;12.80;99.90;;;;;;4975165;28;20430;-82
2023/05/11 04:02:01;;;;;;;9.20;8.30;;;12.90;99.90;;;;;;4996234;28;20203;-81
2023/05/11 04:04:31;;;;;;;7.90;7.20;;;13.00;99.90;;;;;;4994836;28;20573;-82
2023/05/11 04:06:57;;;;;;;8.88;7.97;;;13.10;99.90;;;;;;4995960;28;20524;-82
2023/05/11 04:09:23;;;;;;;8.10;7.30;;;13.00;99.90;;;;;;4996622;28;20192;-82
2023/05/11 04:11:49;;;;;;;9.17;8.07;;;13.10;99.90;;;;;;4996135;28;20838;-82
2023/05/11 04:14:16;;;;;;;7.40;6.60;;;13.20;99.90;;;;;;4996878;28;20179;-82
2023/05/11 04:16:42;;;;;;;9.95;7.60;;;13.30;99.90;;;;;;4996068;28;20211;-81
2023/05/11 04:19:07;;;;;;;12.47;10.60;;;13.40;99.90;;;;;;5010379;28;20638;-82
2023/05/11 04:21:34;;;;;;;9.70;7.10;;;13.50;99.90;;;;;;5010234;28;20425;-82
2023/05/11 04:24:00;;;;;;;7.63;6.83;;;13.60;99.90;;;;;;4993641;28;20194;-83
2023/05/11 04:26:26;;;;;;;9.17;7.27;;;13.70;99.90;;;;;;4993790;28;21005;-80
2023/05/11 04:28:52;;;;;;;10.33;7.20;;;13.70;99.90;;;;;;4993122;28;20436;-80
2023/05/11 04:31:17;;;;;;;12.70;7.90;;;13.80;99.90;;;;;;4990369;28;20622;-80
2023/05/11 04:33:43;;;;;;;7.60;6.90;;;13.80;99.90;;;;;;4985110;28;20204;-81
2023/05/11 04:36:09;;;;;;;8.30;6.67;;;13.90;99.90;;;;;;4984176;28;20211;-81
2023/05/11 04:38:34;;;;;;;7.30;6.37;;;14.00;99.90;;;;;;4980066;28;20235;-81
2023/05/11 04:41:07;;;;;;;9.40;7.37;;;14.00;99.90;;;;;;4973839;28;20638;-81
2023/05/11 04:43:34;;;;;;;8.03;6.10;;;14.00;99.90;;;;;;4978235;28;20188;-81
2023/05/11 04:46:00;;;;;;;7.70;6.60;;;14.00;99.90;;;;;;4983273;28;20490;-81
2023/05/11 04:48:26;;;;;;;9.17;6.87;;;14.10;99.90;;;;;;4975232;28;20582;-81
2023/05/11 04:50:55;;;;;;;7.33;5.70;;;14.10;99.90;;;;;;4991161;28;20503;-81
2023/05/11 04:53:24;;;;;;;7.90;6.10;;;14.10;99.90;;;;;;4982122;28;20449;-83
2023/05/11 04:55:53;;;;;;;7.33;6.60;;;14.10;99.90;;;;;;4992474;28;20492;-82
2023/05/11 04:58:18;;;;;;;6.50;5.90;;;14.10;99.90;;;;;;4990548;28;20990;-82
2023/05/11 05:00:44;;;;;;;8.57;6.80;;;14.20;99.90;;;;;;4986804;28;20477;-82
2023/05/11 05:03:13;;;;;;;9.20;6.60;;;14.20;99.90;;;;;;4972797;28;20180;-83
2023/05/11 05:05:39;;;;;;;7.63;6.03;;;14.30;99.90;;;;;;4988796;28;20231;-82
2023/05/11 05:08:06;;;;;;;16.37;10.73;;;14.40;99.90;;;;;;4986801;28;20469;-83
2023/05/11 05:10:32;;;;;;;6.80;5.70;;;14.40;99.90;;;;;;4985231;28;20204;-83
2023/05/11 05:12:57;;;;;;;8.20;6.50;;;14.50;99.90;;;;;;4981908;28;20442;-82
2023/05/11 05:15:23;;;;;;;6.30;5.33;;;14.60;99.90;;;;;;4978499;28;20223;-82
2023/05/11 05:17:49;;;;;;;7.17;5.70;;;14.60;99.90;;;;;;4977129;28;20652;-82
2023/05/11 05:20:14;;;;;;;7.07;6.33;;;14.70;99.90;;;;;;4981619;28;20228;-83
2023/05/11 05:22:40;;;;;;;6.57;5.67;;;14.80;99.90;;;;;;4984490;28;20185;-83
2023/05/11 05:25:07;;;;;;;6.00;5.40;;;14.80;99.90;;;;;;4980846;28;20223;-82
2023/05/11 05:27:33;;;;;;;6.50;5.90;;;14.80;99.90;;;;;;4980078;28;21818;-83
2023/05/11 05:29:58;;;;;;;6.50;5.67;;;14.90;99.90;;;;;;4984908;28;20465;-83
2023/05/11 05:32:24;;;;;;;6.17;5.50;;;15.00;99.90;;;;;;4984866;28;20621;-82
2023/05/11 05:34:50;;;;;;;7.33;5.70;;;15.10;99.90;;;;;;4981007;28;20215;-82
2023/05/11 05:37:15;;;;;;;6.70;6.10;;;15.30;99.90;;;;;;4981458;28;20650;-82
2023/05/11 05:39:41;;;;;;;8.03;5.63;;;15.30;99.90;;;;;;4990171;28;20233;-83
2023/05/11 05:42:08;;;;;;;6.13;5.50;;;15.40;99.90;;;;;;4989499;28;20270;-82
2023/05/11 05:44:34;;;;;;;7.40;5.90;;;15.50;99.90;;;;;;4987840;28;20188;-83
2023/05/11 05:47:00;;;;;;;8.57;6.10;;;15.60;99.90;;;;;;4991943;28;20442;-83
2023/05/11 05:49:26;;;;;;;6.43;5.83;;;15.70;99.90;;;;;;4977154;28;20494;-82
2023/05/11 05:51:51;;;;;;;8.83;6.93;;;15.80;99.90;;;;;;4986443;28;20231;-82
2023/05/11 05:54:17;;;;;;;5.73;5.23;;;15.90;99.90;;;;;;4984878;28;20672;-84
2023/05/11 05:56:43;;;;;;;7.63;6.80;;;16.00;99.90;;;;;;4983711;28;20204;-82
2023/05/11 05:59:09;;;;;;;5.60;5.10;;;16.10;99.90;;;;;;4990307;28;20472;-83
2023/05/11 06:01:35;;;;;;;6.10;5.50;;;16.20;99.90;;;;;;4990405;28;20552;-83
2023/05/11 06:04:01;;;;;;;6.30;5.80;;;16.30;99.90;;;;;;4983438;28;20896;-82
2023/05/11 06:06:27;;;;;;;8.30;6.40;;;16.30;99.90;;;;;;4986864;28;20254;-85
2023/05/11 06:08:52;;;;;;;8.13;5.53;;;16.40;99.90;;;;;;4985228;28;20441;-84
2023/05/11 06:11:18;;;;;;;6.17;5.57;;;16.50;99.90;;;;;;4985793;28;20210;-86
2023/05/11 06:13:44;;;;;;;8.80;5.70;;;16.60;99.90;;;;;;4982942;28;20797;-82
2023/05/11 06:16:09;;;;;;;7.50;5.80;;;16.70;99.90;;;;;;4983299;28;20242;-83
2023/05/11 06:18:35;;;;;;;6.03;5.43;;;16.70;99.90;;;;;;4988117;28;20192;-82
2023/05/11 06:21:01;;;;;;;7.00;5.23;;;16.80;99.90;;;;;;4976212;28;20262;-82
2023/05/11 06:23:26;;;;;;;6.20;5.60;;;17.00;99.90;;;;;;4987153;28;20712;-87
2023/05/11 06:25:52;;;;;;;7.07;5.67;;;17.00;99.90;;;;;;4983943;28;20228;-82
2023/05/11 06:28:17;;;;;;;6.13;5.53;;;17.10;99.90;;;;;;4990922;28;20190;-86
2023/05/11 06:30:43;;;;;;;6.10;5.50;;;17.20;99.90;;;;;;4985869;28;20193;-84
2023/05/11 06:33:09;;;;;;;7.03;5.70;;;17.20;99.90;;;;;;4971221;28;20192;-82
2023/05/11 06:35:37;;;;;;;9.60;5.97;;;17.20;99.90;;;;;;4954999;28;20200;-85
2023/05/11 06:38:03;;;;;;;6.93;6.30;;;17.20;99.90;;;;;;4954988;28;20388;-86
2023/05/11 06:40:29;;;;;;;6.57;5.97;;;17.20;99.90;;;;;;4968753;28;20460;-81
2023/05/11 06:42:54;;;;;;;9.03;6.20;;;17.30;99.90;;;;;;4954877;28;20938;-82
2023/05/11 06:45:20;;;;;;;7.40;6.30;;;17.40;99.90;;;;;;4968981;28;20228;-85
2023/05/11 06:47:46;;;;;;;8.90;6.57;;;17.60;99.90;;;;;;4956589;28;20520;-84
2023/05/11 06:50:11;;;;;;;6.07;5.47;;;17.70;99.90;;;;;;4953919;28;20450;-84
2023/05/11 06:52:37;;;;;;;6.20;5.27;;;17.70;99.90;;;;;;4954761;28;20969;-84
2023/05/11 06:55:04;;;;;;;5.63;5.10;;;17.60;99.90;;;;;;4952809;28;20283;-83
2023/05/11 06:57:30;;;;;;;5.40;4.50;;;17.80;99.90;;;;;;4955158;28;20192;-84
2023/05/11 06:59:55;;;;;;;6.20;5.07;;;17.80;99.90;;;;;;4959877;28;20465;-87
2023/05/11 07:02:21;;;;;;;5.03;4.33;;;17.80;99.90;;;;;;4956892;28;20213;-86
2023/05/11 07:04:47;;;;;;;16.57;6.50;;;18.00;99.80;;;;;;4955430;28;20376;-86
2023/05/11 07:07:12;;;;;;;6.57;4.90;;;18.10;99.90;;;;;;4960169;28;20246;-85
2023/05/11 07:09:38;;;;;;;7.20;4.03;;;18.10;99.70;;;;;;4955755;28;20200;-87
2023/05/11 07:12:04;;;;;;;4.47;3.70;;;18.30;98.50;;;;;;4958126;28;21041;-87
2023/05/11 07:14:30;;;;;;;5.87;4.27;;;18.40;98.00;;;;;;4970324;28;20191;-86
2023/05/11 07:16:55;;;;;;;5.00;4.17;;;18.40;97.50;;;;;;4970068;28;20545;-84
2023/05/11 07:19:21;;;;;;;6.00;4.37;;;18.40;97.80;;;;;;4994055;28;20201;-85
2023/05/11 07:21:47;;;;;;;5.60;4.60;;;18.50;97.70;;;;;;4989325;28;20201;-85
2023/05/11 07:24:12;;;;;;;5.60;3.97;;;18.50;97.60;;;;;;4984896;28;20590;-86
2023/05/11 07:26:38;;;;;;;4.20;3.80;;;18.60;97.30;;;;;;4978890;28;20223;-83
2023/05/11 07:29:04;;;;;;;3.77;3.47;;;18.60;97.70;;;;;;4982918;28;20284;-85
2023/05/11 07:31:30;;;;;;;4.43;4.03;;;18.80;97.20;;;;;;4985724;28;20282;-86
2023/05/11 07:33:56;;;;;;;4.83;4.37;;;18.90;97.00;;;;;;4983271;28;20207;-87
2023/05/11 07:36:22;;;;;;;3.73;3.30;;;19.10;96.90;;;;;;4985578;28;20447;-87
2023/05/11 07:38:47;;;;;;;4.67;4.27;;;19.20;96.60;;;;;;4987977;28;20193;-87
2023/05/11 07:41:13;;;;;;;4.87;4.30;;;19.30;96.60;;;;;;4986078;28;20212;-86
2023/05/11 07:43:40;;;;;;;4.80;4.40;;;19.30;96.70;;;;;;4984360;28;20642;-85
2023/05/11 07:46:06;;;;;;;4.07;3.60;;;19.40;96.60;;;;;;4985917;28;20253;-84
2023/05/11 07:48:31;;;;;;;9.17;4.50;;;19.40;96.30;;;;;;4978524;28;21100;-85
2023/05/11 07:50:57;;;;;;;4.93;4.20;;;19.50;96.80;;;;;;4992982;28;20818;-84
2023/05/11 07:53:23;;;;;;;4.30;4.00;;;19.50;96.30;;;;;;4985661;28;20273;-85
2023/05/11 07:55:48;;;;;;;4.40;4.10;;;19.70;96.70;;;;;;4979124;28;20222;-86
2023/05/11 07:58:14;;;;;;;4.27;3.87;;;19.60;97.60;;;;;;4982327;28;20215;-86
2023/05/11 08:00:40;;;;;;;4.20;3.90;;;19.50;96.50;;;;;;4973974;28;20234;-87
2023/05/11 08:03:06;;;;;;;7.13;4.27;;;19.50;97.20;;;;;;4982015;28;20195;-84
2023/05/11 08:05:36;;;;;;;5.30;4.17;;;19.30;97.80;;;;;;4978931;28;20480;-86
2023/05/11 08:08:02;;;;;;;5.07;4.33;;;19.40;97.50;;;;;;4971006;28;20215;-84
2023/05/11 08:10:27;;;;;;;4.00;3.70;;;19.30;98.00;;;;;;4974435;28;20440;-85
2023/05/11 08:12:53;;;;;;;4.57;4.17;;;19.40;97.20;;;;;;4974894;28;20452;-84
2023/05/11 08:15:19;;;;;;;6.40;4.20;;;19.50;96.90;;;;;;4984350;28;20207;-86
2023/05/11 08:17:45;;;;;;;3.87;3.40;;;19.40;98.00;;;;;;4990095;28;20194;-85
2023/05/11 08:20:11;;;;;;;5.33;4.33;;;19.30;98.50;;;;;;5002111;28;20631;-87
2023/05/11 08:22:37;;;;;;;6.60;4.33;;;19.20;97.30;;;;;;4978383;28;20504;-85
2023/05/11 08:25:04;;;;;;;5.90;4.00;;;19.30;96.30;;;;;;4969074;28;20472;-85
2023/05/11 08:27:30;;;;;;;3.80;3.50;;;19.30;96.50;;;;;;4964511;28;20195;-86
2023/05/11 08:29:55;;;;;;;3.90;3.60;;;19.30;95.90;;;;;;4983208;28;20821;-85
2023/05/11 08:32:21;;;;;;;6.30;4.00;;;19.30;95.70;;;;;;4983345;28;20267;-85
2023/05/11 08:34:46;;;;;;;4.43;4.03;;;19.30;96.00;;;;;;4982510;28;20194;-88
2023/05/11 08:37:12;;;;;;;7.60;3.90;;;19.40;96.30;;;;;;4970758;28;20186;-87
2023/05/11 08:39:38;;;;;;;4.70;4.03;;;19.40;96.20;;;;;;4981073;28;20189;-86
2023/05/11 08:42:06;;;;;;;7.33;4.17;;;19.30;96.20;;;;;;4991400;28;20188;-85
2023/05/11 08:44:33;;;;;;;4.20;3.90;;;19.20;96.00;;;;;;4978618;28;20222;-87
2023/05/11 08:46:59;;;;;;;4.13;3.73;;;19.20;95.90;;;;;;4992613;28;20506;-87
2023/05/11 08:49:26;;;;;;;5.50;4.33;;;19.10;95.50;;;;;;4986919;28;20513;-86
2023/05/11 08:51:52;;;;;;;5.47;4.17;;;19.10;95.80;;;;;;4982920;28;20457;-86
2023/05/11 08:54:17;;;;;;;5.20;4.10;;;19.10;96.00;;;;;;4979891;28;20876;-86
2023/05/11 08:56:46;;;;;;;3.90;3.60;;;19.10;95.60;;;;;;4983609;28;20458;-85
2023/05/11 08:59:12;;;;;;;6.67;5.47;;;19.00;95.50;;;;;;4971936;28;20191;-86
2023/05/11 09:01:39;;;;;;;4.67;4.27;;;19.00;95.70;;;;;;4976408;28;20443;-85
2023/05/11 09:04:05;;;;;;;4.50;3.97;;;18.90;95.90;;;;;;4977705;28;20484;-86
2023/05/11 09:06:32;;;;;;;4.80;4.40;;;18.80;96.20;;;;;;4986615;28;20706;-86
2023/05/11 09:08:59;;;;;;;4.13;3.80;;;18.80;96.20;;;;;;4981021;28;20784;-86
2023/05/11 09:11:26;;;;;;;4.77;4.27;;;18.70;96.00;;;;;;4984368;28;20819;-85
2023/05/11 09:13:52;;;;;;;4.07;3.67;;;18.70;95.70;;;;;;4986857;28;20440;-86
2023/05/11 09:16:18;;;;;;;4.33;4.03;;;18.70;95.20;;;;;;4977317;28;20463;-85
2023/05/11 09:18:52;;;;;;;4.20;3.80;;;18.70;95.50;;;;;;4973233;28;20448;-85
2023/05/11 09:21:18;;;;;;;4.33;4.03;;;18.60;95.10;;;;;;4973034;28;20209;-86
2023/05/11 09:23:48;;;;;;;4.40;4.10;;;18.60;95.10;;;;;;4985493;28;20948;-86
2023/05/11 09:26:19;;;;;;;5.47;3.77;;;18.60;95.10;;;;;;4989115;28;20476;-86
2023/05/11 09:28:56;;;;;;;4.40;4.00;;;18.60;94.90;;;;;;4991355;28;20453;-85
2023/05/11 09:31:42;;;;;;;4.10;3.80;;;18.50;94.90;;;;;;4983796;28;20463;-86
2023/05/11 09:34:18;;;;;;;6.50;4.17;;;18.40;95.20;;;;;;4975737;28;20975;-86
2023/05/11 09:36:49;;;;;;;4.47;4.03;;;18.40;95.30;;;;;;4978619;28;20548;-85
2023/05/11 09:39:15;;;;;;;4.50;3.90;;;18.40;95.20;;;;;;4972925;28;20443;-86
2023/05/11 09:41:41;;;;;;;5.40;4.27;;;18.40;95.30;;;;;;4983773;28;20457;-85
2023/05/11 09:44:09;;;;;;;4.13;3.80;;;18.50;95.30;;;;;;4982456;28;20442;-85
2023/05/11 09:46:36;;;;;;;4.77;3.83;;;18.50;95.20;;;;;;4985415;28;20315;-86
2023/05/11 09:49:02;;;;;;;5.57;4.40;;;18.60;95.40;;;;;;4987713;28;21082;-86
2023/05/11 09:51:33;;;;;;;5.03;3.70;;;18.60;95.30;;;;;;4983035;28;20850;-86
2023/05/11 09:54:00;;;;;;;4.50;4.10;;;18.60;95.20;;;;;;4979186;28;21030;-86
2023/05/11 09:56:53;;;;;;;4.80;4.30;;;18.70;95.10;;;;;;4980917;28;20488;-85
2023/05/11 09:59:39;;;;;;;4.37;3.97;;;18.80;94.90;;;;;;4981294;28;20473;-86
2023/05/11 10:02:20;;;;;;;4.60;4.20;;;18.80;95.20;;;;;;4981902;28;20450;-85
2023/05/11 10:04:47;;;;;;;5.23;4.73;;;18.90;95.30;;;;;;4971129;28;20486;-87
2023/05/11 10:07:24;;;;;;;4.77;4.37;;;19.00;95.30;;;;;;4978237;28;20487;-85
2023/05/11 10:09:53;;;;;;;5.00;4.47;;;19.00;94.70;;;;;;4983066;28;20439;-86
2023/05/11 10:12:22;;;;;;;6.50;4.37;;;19.00;94.50;;;;;;4979420;28;20436;-85
2023/05/11 10:14:55;;;;;;;3.90;3.50;;;19.10;94.80;;;;;;4977950;28;20441;-87
2023/05/11 10:17:21;;;;;;;5.80;4.00;;;19.20;94.80;;;;;;4982918;28;20753;-85
2023/05/11 10:19:48;;;;;;;4.60;4.20;;;19.30;94.90;;;;;;4975463;28;20465;-84
2023/05/11 10:22:16;;;;;;;4.50;4.10;;;19.30;94.80;;;;;;4985603;28;20218;-85
2023/05/11 10:24:42;;;;;;;4.93;4.40;;;19.30;94.70;;;;;;4992360;28;20816;-86
2023/05/11 10:27:09;;;;;;;4.70;4.33;;;19.30;95.00;;;;;;4982515;28;20760;-86
2023/05/11 10:29:36;;;;;;;4.40;4.00;;;19.40;94.60;;;;;;4979708;28;20490;-86
2023/05/11 10:32:03;;;;;;;4.73;4.33;;;19.50;94.50;;;;;;4976165;28;20833;-86
2023/05/11 10:34:30;;;;;;;5.03;4.53;;;19.50;94.50;;;;;;4983819;28;20447;-85
2023/05/11 10:37:02;;;;;;;5.67;4.30;;;19.50;94.60;;;;;;4980158;28;20453;-86
2023/05/11 10:39:31;;;;;;;4.80;4.37;;;19.50;95.00;;;;;;4985451;28;20452;-86
2023/05/11 10:42:11;;;;;;;4.77;4.30;;;19.50;94.90;;;;;;4978034;28;20790;-87
2023/05/11 10:45:06;;;;;;;4.43;4.03;;;19.50;95.00;;;;;;4967682;28;20428;-86
2023/05/11 10:47:47;;;;;;;5.07;4.57;;;19.60;95.10;;;;;;4968691;28;20437;-86
2023/05/11 10:50:34;;;;;;;6.00;4.50;;;19.60;95.10;;;;;;4972043;28;20467;-86
2023/05/11 10:53:10;;;;;;;5.00;4.50;;;19.70;94.80;;;;;;4979700;28;20807;-85
2023/05/11 10:56:13;;;;;;;6.60;4.30;;;19.70;94.90;;;;;;4972528;28;20449;-85
2023/05/11 10:59:02;;;;;;;4.60;4.20;;;19.60;94.80;;;;;;4972972;28;20693;-86
2023/05/11 11:01:44;;;;;;;5.50;4.03;;;19.50;94.80;;;;;;4987474;28;20572;-86
2023/05/11 11:04:12;;;;;;;6.50;4.57;;;19.50;95.00;;;;;;4986086;28;20486;-85
2023/05/11 11:06:40;;;;;;;5.27;4.60;;;19.60;95.20;;;;;;4981705;28;20491;-85
2023/05/11 11:09:13;;;;;;;4.53;4.13;;;19.70;95.20;;;;;;4972744;28;20464;-84
2023/05/11 11:11:49;;;;;;;4.47;4.03;;;19.70;95.00;;;;;;4986047;28;21140;-86
2023/05/11 11:14:17;;;;;;;4.80;4.40;;;19.70;94.60;;;;;;4979230;28;20472;-87
2023/05/11 11:17:14;;;;;;;4.70;4.30;;;19.70;94.30;;;;;;4983082;28;20487;-86
2023/05/11 11:19:39;;;;;;;5.17;4.73;;;19.70;94.20;;;;;;4986555;28;20478;-86
2023/05/11 11:22:25;;;;;;;4.70;3.90;;;19.60;94.70;;;;;;4986741;28;20420;-85
2023/05/11 11:24:51;;;;;;;4.60;4.20;;;19.70;94.60;;;;;;4981784;28;20217;-85
2023/05/11 11:27:16;;;;;;;4.63;4.17;;;19.80;94.70;;;;;;4982841;28;20468;-84
2023/05/11 11:30:16;;;;;;;7.23;3.90;;;19.90;94.50;;;;;;4977161;28;20191;-85
2023/05/11 11:32:41;;;;;;;5.23;4.23;;;19.90;94.40;;;;;;4976557;28;20218;-86
2023/05/11 11:35:40;;;;;;;9.03;3.80;;;19.90;94.60;;;;;;4976501;28;20489;-86
2023/05/11 11:38:07;;;;;;;4.20;3.90;;;19.90;94.60;;;;;;4972898;28;20241;-87
2023/05/11 11:40:37;;;;;;;23.77;5.57;;;19.90;94.30;;;;;;4981735;28;20846;-85
2023/05/11 11:43:43;;;;;;;4.17;3.87;;;19.80;94.00;;;;;;4984192;28;20551;-86
2023/05/11 11:46:23;;;;;;;7.60;4.23;;;19.80;94.30;;;;;;4984876;28;20852;-86
2023/05/11 11:48:49;;;;;;;8.23;3.97;;;19.80;94.40;;;;;;4983575;28;20835;-86
2023/05/11 11:51:15;;;;;;;5.30;3.43;;;19.80;94.40;;;;;;4982872;28;20479;-85
2023/05/11 11:53:41;;;;;;;4.93;3.73;;;19.70;93.00;;;;;;4985312;28;20191;-86
2023/05/11 11:56:27;;;;;;;3.77;3.27;;;19.50;92.70;;;;;;4978165;28;20259;-86
2023/05/11 11:59:01;;;;;;;3.77;3.40;;;19.40;92.40;;;;;;4980099;28;20455;-85
2023/05/11 12:01:38;;;;;;;6.63;3.80;;;19.30;92.40;;;;;;4981964;28;20449;-87
2023/05/11 12:04:04;;;;;;;5.10;3.70;;;19.30;92.40;;;;;;4985373;28;20490;-85
2023/05/11 12:06:40;;;;;;;5.13;3.33;;;19.30;92.40;;;;;;4983868;28;20479;-86
2023/05/11 12:09:06;;;;;;;3.93;3.63;;;19.30;92.80;;;;;;4979152;28;20192;-86
2023/05/11 12:11:32;;;;;;;7.80;4.63;;;19.30;92.70;;;;;;4983848;28;20570;-86
2023/05/11 12:13:59;;;;;;;3.43;3.13;;;19.40;93.10;;;;;;4979303;28;20736;-86
2023/05/11 12:16:25;;;;;;;2.67;2.47;;;19.40;92.20;;;;;;4981889;28;20494;-87
2023/05/11 12:18:56;;;;;;;3.47;3.00;;;19.40;92.30;;;;;;4995819;28;21000;-86
2023/05/11 12:21:24;;;;;;;6.33;3.03;;;19.30;92.40;;;;;;4989943;28;20213;-86
2023/05/11 12:24:01;;;;;;;4.53;3.80;;;19.20;92.10;;;;;;4987485;28;20566;-86
2023/05/11 12:26:28;;;;;;;9.00;3.60;;;19.10;92.10;;;;;;4991828;28;20897;-85
2023/05/11 12:29:11;;;;;;;5.70;3.17;;;19.10;92.00;;;;;;4979603;28;20445;-86
2023/05/11 12:31:38;;;;;;;3.33;2.90;;;18.90;92.00;;;;;;4982299;28;20976;-86
2023/05/11 12:34:04;;;;;;;3.07;2.87;;;18.90;92.00;;;;;;4985303;28;21230;-85
2023/05/11 12:36:30;;;;;;;4.60;2.93;;;18.70;91.70;;;;;;4985766;28;20562;-86
2023/05/11 12:38:58;;;;;;;3.47;3.07;;;18.60;91.70;;;;;;4985965;28;20441;-86
2023/05/11 12:41:23;;;;;;;3.37;3.07;;;18.50;91.80;;;;;;4987524;28;20464;-87
2023/05/11 12:43:50;;;;;;;3.13;2.93;;;18.50;91.60;;;;;;4980992;28;20449;-86
2023/05/11 12:46:20;;;;;;;3.90;3.00;;;18.50;91.70;;;;;;4981221;28;20478;-85
2023/05/11 12:48:49;;;;;;;3.30;2.70;;;18.50;91.80;;;;;;4982592;28;20439;-86
2023/05/11 12:51:50;;;;;;;3.67;2.90;;;18.50;92.10;;;;;;4980688;28;20448;-86
2023/05/11 12:54:40;;;;;;;3.10;2.90;;;18.50;92.10;;;;;;4971501;28;20436;-85